Decoded Metar for USNN (NIZHNEVARTOVSK in RUSSIA) (IATA:NJC) | Meteo·Mobile Aviation Weather
aviador You're here:

USNN Decoded Metar

NIZHNEVARTOVSK in RUSSIA
Report Time2018-12-16 10:30:00
UTC Time2018-12-16 11:04:08
Flight Rules ifr IFR
Wind250° at 6 kt
W.Decomp.*RWY 21: 5.4 kt HW 2.5 kt RCW
W.Rank250° ranks 7
Current wind is below 250° avg. (6.8)
Visibility9000 m
Phenomena:Freezing Drizzle
Light Snow
Clouds:Overcast 005 Hf
Expected CloudBase > 400 ft AGL from Temp-Dew spread
Ceiling500 ft
Temp-5°C (ISA -20)
Dew Point-6°C (93% RH)
AAT-9.9°C
QNH1017 hPa
Density Alt-2,333 ft
Elevation177 ft
Report Wrong Elevation
Raw Report
USNN 161030Z 25003MPS 9000 -SN OVC005 M05/M06 Q1017 R21/490339
TEMPO 1000 FZDZ RMK QFE758=

Extra information for USNN:More info

Metar Taf Metar & Taf Last 4 Metars F.Rules Stats Wind Profile Meteogram Temp Stats Airport Information Weather charts Add Link Nearby VenuesMetar ALERT Operation Metar Decoded Social comments